Time;durP1;ratioP1;P1;durP2;ratioP2;P2;SDS_P1;SDS_P2;PMS_P1;PMS_P2;Temp;Humidity;BMP_temperature;BMP_pressure;BME280_temperature;BME280_humidity;BME280_pressure;Samples;Min_cycle;Max_cycle;Signal;HPM_P1;HPM_P2
2022/02/15 00:02:07;;;;;;;;;5.00;4.00;;;;;7.59;78.34;100238.63;4916135;28;45444;-61
2022/02/15 00:04:33;;;;;;;;;6.25;5.00;;;;;7.61;78.75;100246.44;4918152;28;45433;-61
2022/02/15 00:06:58;;;;;;;;;4.00;4.00;;;;;7.57;78.58;100250.06;4916954;28;45878;-63
2022/02/15 00:09:25;;;;;;;;;4.25;4.00;;;;;7.57;78.98;100250.06;4916895;28;45326;-63
2022/02/15 00:11:50;;;;;;;;;5.50;4.00;;;;;7.55;79.03;100257.94;4917439;28;45347;-63
2022/02/15 00:14:17;;;;;;;;;3.00;3.00;;;;;7.54;79.09;100252.78;4918248;28;45438;-62
2022/02/15 00:16:42;;;;;;;;;7.25;6.25;;;;;7.52;78.98;100249.34;4921251;28;45351;-63
2022/02/15 00:19:08;;;;;;;;;6.25;3.75;;;;;7.51;78.65;100255.50;4920965;28;45226;-62
2022/02/15 00:21:34;;;;;;;;;4.75;4.75;;;;;7.45;79.87;100249.56;4921723;28;45471;-63
2022/02/15 00:23:59;;;;;;;;;6.25;4.00;;;;;7.47;79.72;100264.34;4919136;28;45292;-64
2022/02/15 00:26:24;;;;;;;;;5.75;4.25;;;;;7.38;79.98;100261.09;4920692;28;46086;-62
2022/02/15 00:28:50;;;;;;;;;4.25;4.25;;;;;7.34;79.76;100258.66;4920469;28;45494;-61
2022/02/15 00:31:15;;;;;;;;;5.00;4.00;;;;;7.30;79.45;100268.34;4919513;28;45440;-62
2022/02/15 00:33:41;;;;;;;;;3.50;3.50;;;;;7.26;79.92;100266.72;4921043;28;45245;-64
2022/02/15 00:36:06;;;;;;;;;5.00;5.00;;;;;7.25;80.61;100270.25;4921862;28;45901;-60
2022/02/15 00:38:32;;;;;;;;;5.00;5.00;;;;;7.23;80.08;100283.38;4923209;28;45201;-61
2022/02/15 00:40:57;;;;;;;;;6.50;4.50;;;;;7.22;80.38;100276.44;4924059;28;45458;-61
2022/02/15 00:43:23;;;;;;;;;3.25;3.25;;;;;7.20;80.03;100277.38;4922898;28;45694;-62
2022/02/15 00:45:48;;;;;;;;;4.00;3.00;;;;;7.21;80.48;100282.59;4921181;28;47183;-60
2022/02/15 00:48:13;;;;;;;;;8.25;3.00;;;;;7.24;80.54;100281.63;4924100;28;45358;-61
2022/02/15 00:50:39;;;;;;;;;8.75;4.00;;;;;7.23;80.60;100280.78;4925797;28;45414;-59
2022/02/15 00:53:04;;;;;;;;;6.50;3.50;;;;;7.19;80.54;100283.53;4925169;28;45350;-62
2022/02/15 00:55:29;;;;;;;;;4.50;3.00;;;;;7.12;79.95;100285.47;4926016;28;45294;-59
2022/02/15 00:57:55;;;;;;;;;4.75;4.00;;;;;7.12;81.06;100299.41;4920892;28;45490;-61
2022/02/15 01:00:22;;;;;;;;;2.00;2.00;;;;;7.08;80.74;100305.63;4921054;28;45526;-62
2022/02/15 01:02:48;;;;;;;;;5.00;3.00;;;;;7.04;80.36;100300.56;4920986;28;45232;-60
2022/02/15 01:05:13;;;;;;;;;4.00;3.50;;;;;7.05;81.08;100310.13;4920013;28;46265;-61
2022/02/15 01:07:38;;;;;;;;;7.00;4.50;;;;;7.03;80.99;100307.53;4919474;28;45416;-60
2022/02/15 01:10:05;;;;;;;;;5.50;4.00;;;;;7.10;80.79;100313.44;4919927;28;45463;-60
2022/02/15 01:12:31;;;;;;;;;3.00;3.00;;;;;7.15;80.83;100311.53;4920719;28;45190;-61
2022/02/15 01:14:56;;;;;;;;;4.25;3.00;;;;;6.99;81.25;100280.63;4920297;28;45433;-60
2022/02/15 01:17:22;;;;;;;;;5.50;3.50;;;;;7.18;81.44;100316.69;4918956;28;45432;-62
2022/02/15 01:19:47;;;;;;;;;7.75;5.00;;;;;7.24;81.35;100319.13;4921049;28;45356;-61
2022/02/15 01:22:12;;;;;;;;;3.75;2.25;;;;;7.27;81.12;100320.75;4919478;28;45548;-59
2022/02/15 01:24:38;;;;;;;;;4.50;4.50;;;;;7.31;80.88;100325.00;4920950;28;47107;-65
2022/02/15 01:27:03;;;;;;;;;4.50;3.25;;;;;7.28;81.13;100325.97;4922439;28;45395;-60
2022/02/15 01:29:29;;;;;;;;;6.75;6.75;;;;;7.23;81.69;100308.69;4921443;28;45379;-61
2022/02/15 01:31:55;;;;;;;;;4.00;4.00;;;;;7.36;81.34;100335.34;4921770;28;45436;-61
2022/02/15 01:34:21;;;;;;;;;6.00;3.75;;;;;7.36;80.83;100330.09;4921322;28;46108;-61
2022/02/15 01:36:47;;;;;;;;;3.50;3.50;;;;;7.37;80.83;100326.59;4921073;28;45351;-61
2022/02/15 01:39:13;;;;;;;;;6.00;4.25;;;;;7.39;80.50;100330.00;4921514;28;45268;-61
2022/02/15 01:41:38;;;;;;;;;4.25;3.50;;;;;7.37;80.97;100332.66;4921154;28;45413;-61
2022/02/15 01:44:04;;;;;;;;;5.00;3.00;;;;;7.36;80.42;100344.03;4921035;28;45898;-61
2022/02/15 01:46:29;;;;;;;;;3.00;3.00;;;;;7.34;79.79;100342.38;4920757;28;45307;-60
2022/02/15 01:48:55;;;;;;;;;4.75;4.00;;;;;7.24;80.57;100329.56;4922672;28;45332;-60
2022/02/15 01:51:20;;;;;;;;;4.00;2.00;;;;;7.26;80.35;100346.09;4924374;28;45550;-61
2022/02/15 01:53:45;;;;;;;;;3.25;3.25;;;;;7.21;81.02;100350.59;4923544;28;45371;-61
2022/02/15 01:56:13;;;;;;;;;5.25;3.00;;;;;7.13;81.48;100342.97;4921461;28;45255;-61
2022/02/15 01:58:39;;;;;;;;;4.50;2.00;;;;;7.11;81.18;100351.78;4922811;28;45429;-63
2022/02/15 02:01:04;;;;;;;;;6.25;2.75;;;;;7.06;80.68;100353.66;4923927;28;45411;-61
2022/02/15 02:03:29;;;;;;;;;5.00;3.00;;;;;7.01;81.44;100362.50;4923620;28;45460;-66
2022/02/15 02:05:55;;;;;;;;;5.25;5.25;;;;;6.99;80.59;100366.94;4921864;28;45370;-60
2022/02/15 02:08:23;;;;;;;;;4.00;3.00;;;;;7.00;81.74;100365.16;4919582;28;45387;-60
2022/02/15 02:10:49;;;;;;;;;4.00;3.00;;;;;6.98;81.24;100369.56;4922328;28;45305;-60
2022/02/15 02:13:15;;;;;;;;;4.00;3.00;;;;;6.97;82.02;100367.84;4921657;28;45305;-61
2022/02/15 02:15:44;;;;;;;;;4.75;3.00;;;;;6.96;82.14;100371.38;4921081;28;45237;-61
2022/02/15 02:18:11;;;;;;;;;6.50;2.50;;;;;6.98;81.28;100378.28;4925544;28;45453;-60
2022/02/15 02:20:36;;;;;;;;;5.00;3.00;;;;;7.01;81.76;100375.59;4923433;28;45590;-61
2022/02/15 02:23:02;;;;;;;;;2.25;2.25;;;;;7.01;81.40;100379.94;4922236;28;45585;-62
2022/02/15 02:25:28;;;;;;;;;2.00;2.00;;;;;7.04;81.24;100381.63;4920014;28;45357;-62
2022/02/15 02:27:54;;;;;;;;;4.25;2.50;;;;;7.01;81.46;100377.31;4920817;28;45277;-61
2022/02/15 02:30:20;;;;;;;;;5.75;3.25;;;;;7.05;81.22;100389.41;4922421;28;45302;-61
2022/02/15 02:32:46;;;;;;;;;4.00;3.00;;;;;7.07;81.15;100386.78;4919244;28;46489;-62
2022/02/15 02:35:12;;;;;;;;;4.00;3.00;;;;;7.03;81.61;100374.69;4918707;28;45439;-59
2022/02/15 02:37:38;;;;;;;;;4.00;3.00;;;;;7.13;81.56;100392.66;4924804;28;45297;-60
2022/02/15 02:40:07;;;;;;;;;3.25;3.25;;;;;7.15;81.54;100388.25;4919848;28;45502;-61
2022/02/15 02:42:34;;;;;;;;;4.75;2.25;;;;;7.12;81.09;100390.94;4918687;28;46659;-59
2022/02/15 02:45:06;;;;;;;;;3.25;2.75;;;;;7.11;80.81;100391.84;4917350;28;45401;-60
2022/02/15 02:47:32;;;;;;;;;2.75;2.75;;;;;7.11;80.49;100399.69;4918586;28;45296;-61
2022/02/15 02:49:57;;;;;;;;;2.50;2.00;;;;;7.10;81.64;100405.84;4917864;28;45611;-61
2022/02/15 02:52:24;;;;;;;;;4.00;1.75;;;;;7.07;80.53;100410.31;4919890;28;46201;-60
2022/02/15 02:54:50;;;;;;;;;3.25;2.00;;;;;6.98;80.53;100406.19;4921626;28;44804;-61
2022/02/15 02:57:16;;;;;;;;;2.00;2.00;;;;;6.98;80.74;100416.66;4920448;28;45265;-61
2022/02/15 02:59:43;;;;;;;;;3.75;2.00;;;;;6.94;80.84;100410.66;4919755;28;45219;-61
2022/02/15 03:02:09;;;;;;;;;3.75;3.00;;;;;6.91;81.35;100415.97;4918476;28;46282;-60
2022/02/15 03:04:36;;;;;;;;;2.50;1.00;;;;;6.87;81.84;100409.97;4918062;28;46112;-61
2022/02/15 03:07:02;;;;;;;;;3.50;2.00;;;;;6.84;81.68;100417.00;4918494;28;45355;-60
2022/02/15 03:09:28;;;;;;;;;3.00;3.00;;;;;6.76;80.93;100417.25;4918907;28;45345;-61
2022/02/15 03:11:54;;;;;;;;;2.00;2.00;;;;;6.73;81.46;100422.56;4918742;28;46726;-59
2022/02/15 03:14:19;;;;;;;;;5.00;2.00;;;;;6.70;81.74;100427.84;4918967;28;45395;-61
2022/02/15 03:16:45;;;;;;;;;5.25;0.75;;;;;6.67;81.35;100438.41;4917614;28;45324;-61
2022/02/15 03:19:11;;;;;;;;;5.25;2.00;;;;;6.64;81.73;100446.31;4918656;28;45350;-61
2022/02/15 03:21:36;;;;;;;;;4.25;2.00;;;;;6.62;81.85;100453.34;4917182;28;47325;-60
2022/02/15 03:24:02;;;;;;;;;5.00;2.25;;;;;6.60;82.78;100457.75;4918405;28;45263;-61
2022/02/15 03:26:28;;;;;;;;;5.25;2.00;;;;;6.56;81.85;100465.66;4919443;28;45399;-60
2022/02/15 03:28:53;;;;;;;;;1.50;1.00;;;;;6.54;82.57;100458.75;4920183;28;45590;-61
2022/02/15 03:31:20;;;;;;;;;3.00;1.00;;;;;6.55;82.54;100466.56;4920082;28;46317;-60
2022/02/15 03:33:45;;;;;;;;;2.00;1.75;;;;;6.57;81.78;100475.22;4918687;28;45278;-60
2022/02/15 03:36:11;;;;;;;;;5.25;2.25;;;;;6.58;81.71;100476.06;4918825;28;45299;-61
2022/02/15 03:38:36;;;;;;;;;3.00;2.50;;;;;6.67;81.85;100488.06;4919261;28;45314;-60
2022/02/15 03:43:46;;;;;;;;;2.00;1.75;;;;;6.72;81.76;100491.41;4920577;28;45379;-60
2022/02/15 03:46:11;;;;;;;;;2.25;2.25;;;;;6.72;81.17;100491.41;4920215;28;45420;-60
2022/02/15 03:48:36;;;;;;;;;3.00;1.25;;;;;6.78;81.56;100504.31;4922823;28;45525;-60
2022/02/15 03:51:03;;;;;;;;;2.00;2.00;;;;;6.80;81.53;100510.38;4921694;28;45410;-60
2022/02/15 03:53:28;;;;;;;;;4.00;1.25;;;;;6.75;80.81;100493.06;4920641;28;45319;-60
2022/02/15 03:55:53;;;;;;;;;1.75;1.50;;;;;6.80;80.66;100502.53;4919908;28;45261;-60
2022/02/15 03:58:19;;;;;;;;;6.50;1.00;;;;;6.79;80.47;100518.25;4921722;28;45244;-60
2022/02/15 04:00:44;;;;;;;;;1.25;1.00;;;;;6.70;80.40;100514.97;4922607;28;45303;-60
2022/02/15 04:03:09;;;;;;;;;3.50;2.00;;;;;6.68;80.88;100529.81;4922617;28;45814;-60
2022/02/15 04:05:35;;;;;;;;;4.25;2.00;;;;;6.64;81.12;100527.34;4926137;28;45253;-61
2022/02/15 04:08:01;;;;;;;;;2.00;2.00;;;;;6.53;80.74;100518.00;4923312;28;45581;-60
2022/02/15 04:10:26;;;;;;;;;2.00;1.25;;;;;6.54;80.65;100524.97;4921489;28;46247;-59
2022/02/15 04:12:52;;;;;;;;;2.75;2.00;;;;;6.49;80.99;100537.28;4921980;28;45249;-60
2022/02/15 04:15:18;;;;;;;;;5.25;2.00;;;;;6.43;80.94;100522.59;4920334;28;45437;-61
2022/02/15 04:17:45;;;;;;;;;5.50;2.00;;;;;6.43;81.33;100545.25;4923220;28;45533;-61
2022/02/15 04:20:11;;;;;;;;;3.50;2.00;;;;;6.35;80.85;100539.34;4923896;28;45426;-61
2022/02/15 04:22:37;;;;;;;;;2.50;2.25;;;;;6.35;81.45;100555.00;4922978;28;45395;-61
2022/02/15 04:25:03;;;;;;;;;3.50;1.00;;;;;6.32;80.97;100558.56;4924176;28;45200;-61
2022/02/15 04:27:29;;;;;;;;;2.75;1.00;;;;;6.29;81.20;100567.31;4927177;28;45229;-61
2022/02/15 04:29:55;;;;;;;;;1.25;1.00;;;;;6.24;82.08;100566.56;4923807;28;46525;-60
2022/02/15 04:32:20;;;;;;;;;4.75;1.00;;;;;6.24;81.05;100574.41;4924364;28;45200;-59
2022/02/15 04:34:45;;;;;;;;;3.50;2.00;;;;;6.22;81.19;100581.41;4922794;28;45257;-61
2022/02/15 04:37:11;;;;;;;;;3.50;2.25;;;;;6.21;81.86;100584.06;4922396;28;45529;-59
2022/02/15 04:39:37;;;;;;;;;2.75;2.25;;;;;6.17;81.64;100583.25;4921767;28;45600;-61
2022/02/15 04:42:03;;;;;;;;;1.00;1.00;;;;;6.14;81.56;100584.22;4920688;28;45465;-60
2022/02/15 04:44:28;;;;;;;;;2.25;2.00;;;;;6.13;81.85;100594.66;4921343;28;45287;-61
2022/02/15 04:46:54;;;;;;;;;2.75;2.75;;;;;6.15;81.86;100598.09;4921047;28;45297;-60
2022/02/15 04:49:19;;;;;;;;;2.50;2.00;;;;;6.13;81.38;100597.28;4922680;28;45365;-61
2022/02/15 04:51:45;;;;;;;;;5.50;0.75;;;;;6.12;81.45;100600.78;4919985;28;45390;-59
2022/02/15 04:54:10;;;;;;;;;1.75;1.00;;;;;6.07;81.88;100597.41;4923078;28;45410;-61
2022/02/15 04:56:35;;;;;;;;;1.00;1.00;;;;;6.05;81.44;100597.47;4921752;28;45596;-62
2022/02/15 04:59:01;;;;;;;;;1.50;1.50;;;;;6.01;81.26;100592.31;4926656;28;45366;-60
2022/02/15 05:01:26;;;;;;;;;2.75;1.00;;;;;5.99;81.39;100610.63;4922872;28;45450;-60
2022/02/15 05:03:51;;;;;;;;;3.50;1.75;;;;;6.01;81.82;100608.00;4922024;28;45797;-61
2022/02/15 05:06:17;;;;;;;;;2.00;1.50;;;;;5.99;81.87;100610.63;4922613;28;45485;-59
2022/02/15 05:08:42;;;;;;;;;3.75;2.00;;;;;5.97;81.59;100626.31;4922819;28;45346;-63
2022/02/15 05:11:08;;;;;;;;;4.00;1.50;;;;;5.93;82.27;100622.03;4923013;28;45189;-62
2022/02/15 05:13:33;;;;;;;;;4.00;1.50;;;;;5.94;82.00;100622.91;4922970;28;45260;-62
2022/02/15 05:15:58;;;;;;;;;3.50;2.75;;;;;5.87;82.39;100616.94;4924075;28;45545;-64
2022/02/15 05:18:25;;;;;;;;;3.50;2.00;;;;;5.88;82.38;100613.44;4923009;28;46002;-62
2022/02/15 05:20:51;;;;;;;;;3.25;1.00;;;;;5.89;82.43;100614.31;4921879;28;45332;-64
2022/02/15 05:23:17;;;;;;;;;4.25;2.00;;;;;5.78;82.41;100607.53;4919596;28;45485;-62
2022/02/15 05:25:42;;;;;;;;;5.25;1.00;;;;;5.87;82.00;100627.38;4920520;28;45536;-62
2022/02/15 05:28:07;;;;;;;;;3.25;1.25;;;;;5.84;82.62;100627.44;4919963;28;46923;-62
2022/02/15 05:30:33;;;;;;;;;1.25;1.00;;;;;5.83;82.10;100626.59;4919365;28;45303;-62
2022/02/15 05:32:58;;;;;;;;;4.00;2.25;;;;;5.75;82.99;100611.97;4918640;28;45336;-63
2022/02/15 05:35:24;;;;;;;;;2.00;1.50;;;;;5.82;82.57;100631.84;4920271;28;46010;-64
2022/02/15 05:37:49;;;;;;;;;2.00;2.00;;;;;5.80;82.49;100626.63;4920137;28;46390;-62
2022/02/15 05:40:15;;;;;;;;;4.00;2.00;;;;;5.81;83.09;100635.34;4920096;28;45481;-65
2022/02/15 05:42:42;;;;;;;;;7.00;3.00;;;;;5.80;83.11;100642.28;4919928;28;45529;-63
2022/02/15 05:45:08;;;;;;;;;1.50;1.50;;;;;5.77;83.09;100636.28;4919685;28;45541;-64
2022/02/15 05:47:34;;;;;;;;;2.25;1.00;;;;;5.73;82.97;100621.56;4920077;28;46593;-61
2022/02/15 05:52:43;;;;;;;;;5.00;2.00;;;;;5.71;82.79;100626.81;4919362;28;45234;-62
2022/02/15 05:55:09;;;;;;;;;6.75;2.25;;;;;5.63;82.28;100620.88;4919417;28;45307;-63
2022/02/15 05:57:35;;;;;;;;;3.25;2.00;;;;;5.70;82.57;100638.13;4919711;28;46766;-61
2022/02/15 06:00:00;;;;;;;;;5.25;2.00;;;;;5.65;82.53;100619.97;4920111;28;45240;-63
2022/02/15 06:02:26;;;;;;;;;6.00;3.00;;;;;5.66;82.78;100631.25;4923287;28;45288;-63
2022/02/15 06:04:52;;;;;;;;;2.75;2.75;;;;;5.65;81.77;100640.84;4918581;28;45568;-61
2022/02/15 06:07:17;;;;;;;;;2.00;2.00;;;;;5.65;82.50;100648.69;4919857;28;47650;-62
2022/02/15 06:09:43;;;;;;;;;3.00;2.00;;;;;5.63;82.85;100640.03;4919818;28;45458;-61
2022/02/15 06:12:09;;;;;;;;;5.75;3.25;;;;;5.62;82.42;100646.13;4919016;28;45307;-62
2022/02/15 06:14:34;;;;;;;;;3.50;3.00;;;;;5.54;81.94;100645.41;4920239;28;45609;-61
2022/02/15 06:17:00;;;;;;;;;2.25;2.00;;;;;5.62;82.25;100660.91;4920533;28;45458;-61
2022/02/15 06:19:26;;;;;;;;;5.25;1.75;;;;;5.61;81.97;100664.41;4920695;28;45375;-61
2022/02/15 06:21:51;;;;;;;;;2.75;1.00;;;;;5.61;81.92;100667.91;4919375;28;45418;-62
2022/02/15 06:24:17;;;;;;;;;3.00;1.50;;;;;5.58;82.12;100667.94;4919426;28;45533;-61
2022/02/15 06:26:43;;;;;;;;;1.00;1.00;;;;;5.59;81.37;100674.88;4919298;28;45374;-62
2022/02/15 06:29:10;;;;;;;;;4.00;2.00;;;;;5.53;81.68;100664.56;4920490;28;45275;-61
2022/02/15 06:31:36;;;;;;;;;7.50;3.00;;;;;5.53;82.13;100654.97;4919382;28;45280;-61
2022/02/15 06:34:01;;;;;;;;;4.00;3.25;;;;;5.55;82.19;100674.06;4919440;28;45530;-62
2022/02/15 06:36:27;;;;;;;;;11.00;3.00;;;;;5.54;81.82;100681.94;4919504;28;46344;-61
2022/02/15 06:38:52;;;;;;;;;1.00;1.00;;;;;5.53;82.32;100688.91;4920338;28;45376;-62
2022/02/15 06:41:17;;;;;;;;;4.75;2.00;;;;;5.48;81.90;100687.28;4919510;28;45322;-61
2022/02/15 06:43:43;;;;;;;;;5.25;2.00;;;;;5.46;81.49;100697.72;4919218;28;45535;-64
2022/02/15 06:46:08;;;;;;;;;6.00;2.00;;;;;5.48;81.42;100687.28;4918665;28;45494;-61
2022/02/15 06:48:34;;;;;;;;;5.75;3.50;;;;;5.42;81.46;100688.22;4923184;28;45255;-62
2022/02/15 06:50:59;;;;;;;;;4.00;4.00;;;;;5.41;82.14;100694.31;4919140;28;45541;-62
2022/02/15 06:53:26;;;;;;;;;4.00;3.00;;;;;5.39;81.92;100691.75;4919392;28;45565;-61
2022/02/15 06:55:51;;;;;;;;;8.25;3.00;;;;;5.42;82.20;100703.88;4918398;28;46847;-63
2022/02/15 06:58:16;;;;;;;;;4.50;3.00;;;;;5.43;81.70;100710.81;4918667;28;45316;-62
2022/02/15 07:00:42;;;;;;;;;8.25;5.00;;;;;5.37;81.83;100696.13;4918634;28;45377;-62
2022/02/15 07:03:07;;;;;;;;;5.50;4.75;;;;;5.43;81.29;100704.75;4919026;28;45433;-62
2022/02/15 07:05:32;;;;;;;;;6.00;2.00;;;;;5.44;80.82;100712.53;4918540;28;45309;-62
2022/02/15 07:07:58;;;;;;;;;2.00;2.00;;;;;5.44;81.37;100722.13;4918833;28;45279;-63
2022/02/15 07:10:23;;;;;;;;;10.75;3.75;;;;;5.45;81.23;100726.47;4919369;28;45231;-63
2022/02/15 07:12:48;;;;;;;;;2.00;2.00;;;;;5.45;81.06;100726.47;4918109;28;45445;-63
2022/02/15 07:15:14;;;;;;;;;4.75;2.00;;;;;5.46;80.82;100726.41;4918976;28;45669;-61
2022/02/15 07:17:40;;;;;;;;;6.75;2.50;;;;;5.47;80.43;100728.13;4919425;28;45363;-62
2022/02/15 07:20:07;;;;;;;;;3.00;2.00;;;;;5.48;80.71;100731.63;4919664;28;45302;-62
2022/02/15 07:22:33;;;;;;;;;1.50;0.00;;;;;5.44;80.83;100727.34;4922260;28;45614;-63
2022/02/15 07:24:59;;;;;;;;;4.25;1.50;;;;;5.48;80.96;100740.28;4926851;28;45432;-62
2022/02/15 07:27:26;;;;;;;;;7.00;3.00;;;;;5.42;81.39;100729.97;4927008;28;44772;-64
2022/02/15 07:29:52;;;;;;;;;5.75;3.00;;;;;5.48;80.28;100729.88;4925865;28;45460;-62
2022/02/15 07:32:23;;;;;;;;;5.00;2.00;;;;;5.54;80.48;100734.13;4923053;28;45323;-63
2022/02/15 07:34:49;;;;;;;;;2.25;2.00;;;;;5.51;80.57;100728.97;4926156;28;46881;-60
2022/02/15 07:37:15;;;;;;;;;3.00;2.00;;;;;5.53;80.49;100729.78;4922083;28;45762;-63
2022/02/15 07:39:40;;;;;;;;;2.50;2.00;;;;;5.39;80.78;100711.75;4922194;28;45518;-63
2022/02/15 07:42:06;;;;;;;;;5.25;3.00;;;;;5.63;80.80;100744.41;4923126;28;45264;-61
2022/02/15 07:44:31;;;;;;;;;3.75;3.00;;;;;5.64;79.70;100751.34;4921952;28;45363;-61
2022/02/15 07:46:57;;;;;;;;;6.75;2.75;;;;;5.64;80.18;100746.13;4922814;28;45328;-70
2022/02/15 07:49:22;;;;;;;;;2.75;2.75;;;;;5.68;80.58;100758.25;4921960;28;45478;-71
2022/02/15 07:51:50;;;;;;;;;6.50;3.00;;;;;5.68;80.11;100753.03;4935788;28;45366;-71
2022/02/15 07:54:15;;;;;;;;;6.75;3.25;;;;;5.72;80.15;100752.97;4940681;28;45313;-71
2022/02/15 07:56:41;;;;;;;;;2.00;2.00;;;;;5.76;79.85;100752.88;4933998;28;45315;-68
2022/02/15 07:59:06;;;;;;;;;4.50;3.00;;;;;5.78;79.80;100752.88;4921433;28;45441;-72
2022/02/15 08:01:32;;;;;;;;;2.75;2.75;;;;;5.81;79.58;100763.25;4921819;28;45245;-69
2022/02/15 08:03:58;;;;;;;;;7.75;5.00;;;;;5.81;79.84;100752.81;4922388;28;45285;-70
2022/02/15 08:06:23;;;;;;;;;4.50;4.00;;;;;5.89;80.04;100774.41;4922797;28;45492;-70
2022/02/15 08:08:48;;;;;;;;;3.00;1.25;;;;;5.91;79.51;100769.19;4926586;28;45537;-75
2022/02/15 08:11:14;;;;;;;;;4.25;3.75;;;;;5.96;79.72;100780.41;4927579;28;45310;-64
2022/02/15 08:13:39;;;;;;;;;6.50;4.00;;;;;5.99;78.98;100775.97;4925805;28;46144;-63
2022/02/15 08:16:05;;;;;;;;;4.00;3.00;;;;;6.04;79.02;100790.72;4925629;28;45503;-62
2022/02/15 08:18:30;;;;;;;;;5.00;4.00;;;;;6.07;78.61;100786.31;4921776;28;45397;-68
2022/02/15 08:20:56;;;;;;;;;5.00;3.00;;;;;6.13;78.97;100793.16;4923201;28;45460;-64
2022/02/15 08:23:22;;;;;;;;;5.50;3.50;;;;;6.16;79.02;100795.72;4902488;29;47310;-65
2022/02/15 08:25:50;;;;;;;;;4.75;4.00;;;;;6.19;79.41;100795.66;4903972;29;45376;-64
2022/02/15 08:28:17;;;;;;;;;4.75;3.25;;;;;6.21;79.03;100793.88;4904283;28;44808;-64
2022/02/15 08:30:43;;;;;;;;;4.50;2.00;;;;;6.16;78.00;100782.66;4904431;28;45466;-64
2022/02/15 08:33:08;;;;;;;;;5.00;3.00;;;;;6.23;77.77;100794.72;4902061;28;46532;-63
2022/02/15 08:35:34;;;;;;;;;7.75;4.75;;;;;6.26;78.95;100797.28;4900898;28;45413;-64
2022/02/15 08:37:59;;;;;;;;;2.75;2.75;;;;;6.32;79.68;100812.00;4901509;28;45328;-63
2022/02/15 08:40:25;;;;;;;;;4.25;3.00;;;;;6.39;78.56;100823.19;4903083;28;45590;-66
2022/02/15 08:42:50;;;;;;;;;6.25;4.75;;;;;6.40;77.18;100819.69;4902036;28;45471;-61
2022/02/15 08:45:16;;;;;;;;;3.00;3.00;;;;;6.42;77.10;100820.53;4902672;28;45519;-62
2022/02/15 08:47:41;;;;;;;;;6.25;3.00;;;;;6.38;77.67;100805.81;4904849;28;45368;-61
2022/02/15 08:50:08;;;;;;;;;6.75;5.00;;;;;6.45;77.57;100814.38;4900939;29;45482;-63
2022/02/15 08:52:36;;;;;;;;;4.25;3.00;;;;;6.47;77.63;100809.97;4901852;28;46451;-63
2022/02/15 08:55:02;;;;;;;;;7.25;5.50;;;;;6.49;78.00;100809.06;4900013;29;45250;-64
2022/02/15 08:57:28;;;;;;;;;3.25;3.00;;;;;6.50;77.08;100812.53;4900425;29;45391;-64
2022/02/15 08:59:54;;;;;;;;;5.25;4.25;;;;;6.49;76.92;100806.44;4901602;28;45284;-64
2022/02/15 09:02:23;;;;;;;;;7.00;4.50;;;;;6.55;77.07;100800.22;4901363;28;46403;-63
2022/02/15 09:04:49;;;;;;;;;8.00;4.00;;;;;6.62;77.59;100808.81;4901819;28;45290;-64
2022/02/15 09:07:14;;;;;;;;;4.00;3.00;;;;;6.63;76.24;100805.31;4904966;28;45395;-66
2022/02/15 09:09:40;;;;;;;;;4.00;3.00;;;;;6.67;76.03;100799.13;4900736;29;45278;-63
2022/02/15 09:12:06;;;;;;;;;6.50;6.00;;;;;6.70;76.70;100784.22;4901199;28;45329;-63
2022/02/15 09:14:31;;;;;;;;;7.75;4.75;;;;;6.76;76.62;100769.31;4901750;29;45224;-64
2022/02/15 09:16:59;;;;;;;;;5.25;4.00;;;;;6.82;75.79;100763.94;4900868;29;45280;-64
2022/02/15 09:19:25;;;;;;;;;6.00;4.00;;;;;6.86;75.41;100762.97;4901382;28;45519;-64
2022/02/15 09:21:51;;;;;;;;;9.00;4.75;;;;;6.90;76.13;100771.63;4898819;29;47583;-63
2022/02/15 09:24:17;;;;;;;;;5.50;4.00;;;;;6.97;75.25;100779.31;4900335;28;45304;-62
2022/02/15 09:26:43;;;;;;;;;5.00;5.00;;;;;7.02;75.36;100776.59;4900658;29;45216;-63
2022/02/15 09:29:10;;;;;;;;;8.00;5.25;;;;;7.08;74.09;100779.06;4900657;29;45254;-63
2022/02/15 09:31:38;;;;;;;;;5.00;4.50;;;;;7.15;74.59;100782.41;4900579;28;46384;-64
2022/02/15 09:34:04;;;;;;;;;9.50;4.25;;;;;7.22;74.32;100783.13;4900454;28;45435;-62
2022/02/15 09:36:29;;;;;;;;;6.25;3.50;;;;;7.26;74.15;100787.38;4900757;29;45351;-63
2022/02/15 09:38:55;;;;;;;;;7.50;4.50;;;;;7.32;73.37;100787.25;4900941;28;45497;-64
2022/02/15 09:41:21;;;;;;;;;5.25;3.00;;;;;7.40;72.62;100801.00;4900680;29;46547;-63
2022/02/15 09:43:47;;;;;;;;;5.00;3.00;;;;;7.42;72.89;100783.53;4900820;28;45385;-64
2022/02/15 09:46:14;;;;;;;;;8.75;6.00;;;;;7.50;72.60;100787.72;4900666;28;45252;-62
2022/02/15 09:48:41;;;;;;;;;7.00;4.00;;;;;7.58;72.59;100783.16;4899543;29;45381;-63
2022/02/15 09:51:08;;;;;;;;;8.75;6.00;;;;;7.61;73.52;100780.47;4898848;29;45927;-63
2022/02/15 09:53:33;;;;;;;;;8.75;4.50;;;;;7.73;71.98;100790.63;4901542;28;45478;-63
2022/02/15 09:55:59;;;;;;;;;4.00;4.00;;;;;7.73;72.59;100771.44;4900381;28;45323;-64
2022/02/15 09:58:24;;;;;;;;;3.75;2.00;;;;;7.87;71.62;100790.28;4899947;29;45330;-63
2022/02/15 10:00:50;;;;;;;;;7.00;5.25;;;;;7.94;72.90;100788.38;4900949;29;46106;-63
2022/02/15 10:42:53;;;;;;;;;10.00;8.75;;;;;9.93;66.69;100814.91;5022073;23;45316;-66
2022/02/15 10:45:19;;;;;;;;;7.00;5.25;;;;;9.88;66.35;100794.97;4937066;28;45277;-63
2022/02/15 10:47:46;;;;;;;;;3.75;2.00;;;;;9.84;65.52;100791.56;4936765;28;45374;-65
2022/02/15 10:50:14;;;;;;;;;3.50;3.00;;;;;9.76;65.56;100781.31;5425675;23;46916;-63
2022/02/15 10:52:41;;;;;;;;;3.75;2.25;;;;;9.67;65.75;100781.63;4939153;28;45527;-64
2022/02/15 10:55:08;;;;;;;;;6.50;4.00;;;;;9.65;66.24;100781.66;4940625;28;45400;-63
2022/02/15 10:57:36;;;;;;;;;4.00;1.50;;;;;9.68;66.28;100771.97;4937994;28;45632;-64
2022/02/15 11:00:09;;;;;;;;;4.00;2.75;;;;;9.70;66.17;100768.41;4938626;28;45466;-65
2022/02/15 11:02:37;;;;;;;;;6.75;4.00;;;;;9.77;66.39;100775.16;5506353;23;46865;-63
2022/02/15 11:11:26;;;;;;;;;8.75;5.50;;;;;9.89;65.58;100778.28;5425670;23;46403;-65
2022/02/15 11:13:54;;;;;;;;;2.50;2.25;;;;;9.97;65.77;100762.22;4936482;28;45416;-66
2022/02/15 11:16:22;;;;;;;;;5.50;4.25;;;;;10.03;65.31;100756.75;4935581;28;45481;-66
2022/02/15 11:18:48;;;;;;;;;5.75;4.00;;;;;10.16;65.48;100752.81;4935609;28;45522;-64
2022/02/15 11:21:26;;;;;;;;;7.75;6.50;;;;;10.28;65.18;100756.75;4936285;28;45451;-64
2022/02/15 11:24:00;;;;;;;;;7.50;3.50;;;;;10.43;64.60;100751.88;4936344;28;45314;-65
2022/02/15 11:26:43;;;;;;;;;8.50;5.75;;;;;10.58;64.50;100747.84;4936343;28;45579;-68
2022/02/15 11:29:22;;;;;;;;;4.25;3.00;;;;;10.64;63.90;100743.22;4936239;28;45425;-65
2022/02/15 11:31:49;;;;;;;;;9.75;4.00;;;;;10.69;64.00;100744.81;4936344;28;45428;-65
2022/02/15 11:34:15;;;;;;;;;4.25;3.00;;;;;10.81;63.59;100757.50;4936103;28;45318;-66
2022/02/15 11:36:50;;;;;;;;;4.25;3.75;;;;;11.01;62.81;100754.06;4936317;28;45385;-64
2022/02/15 11:39:29;;;;;;;;;3.75;3.75;;;;;11.29;62.54;100752.13;4934351;28;45637;-65
2022/02/15 11:41:57;;;;;;;;;4.50;4.00;;;;;11.47;62.78;100746.09;4936168;28;45623;-64
2022/02/15 11:44:30;;;;;;;;;10.00;3.25;;;;;11.62;61.22;100749.00;4936198;28;45373;-66
2022/02/15 11:46:55;;;;;;;;;4.00;3.75;;;;;11.63;62.05;100743.69;4936189;28;45424;-67
2022/02/15 11:49:25;;;;;;;;;4.25;4.25;;;;;11.70;60.92;100741.69;4936685;28;45300;-66
2022/02/15 11:51:50;;;;;;;;;8.75;6.25;;;;;11.72;61.15;100733.69;4936458;28;45319;-64
2022/02/15 11:54:19;;;;;;;;;8.25;4.25;;;;;11.77;60.56;100729.06;4934670;28;45404;-67
2022/02/15 11:56:47;;;;;;;;;9.00;4.00;;;;;11.92;60.86;100743.38;4936317;28;45329;-66
2022/02/15 11:59:25;;;;;;;;;9.75;5.25;;;;;12.11;60.67;100736.41;4936364;28;45531;-64
2022/02/15 12:02:00;;;;;;;;;3.25;3.25;;;;;12.23;59.84;100727.13;4935120;28;46335;-64
2022/02/15 12:04:26;;;;;;;;;5.00;3.00;;;;;12.22;59.24;100720.13;4936105;28;45460;-68
2022/02/15 12:06:53;;;;;;;;;6.00;4.50;;;;;12.31;59.57;100715.34;4936490;28;45417;-66
2022/02/15 12:09:26;;;;;;;;;9.00;6.25;;;;;12.38;59.41;100704.44;4936358;28;45388;-66
2022/02/15 12:11:53;;;;;;;;;6.50;6.25;;;;;12.48;58.92;100712.81;4938522;28;47356;-65
2022/02/15 12:14:23;;;;;;;;;12.50;8.00;;;;;12.47;58.80;100707.56;4939469;28;45461;-64
2022/02/15 12:16:53;;;;;;;;;9.25;4.75;;;;;12.49;58.02;100706.59;4937837;28;45418;-65
2022/02/15 12:19:29;;;;;;;;;9.25;3.75;;;;;12.49;57.70;100700.44;4939419;28;45514;-64